createdAt,value
2023-02-16T00:01:35.026Z,13.10
2023-02-16T00:04:19.681Z,11.87
2023-02-16T00:06:49.713Z,11.40
2023-02-16T00:09:18.461Z,10.23
2023-02-16T00:12:05.748Z,13.17
2023-02-16T00:14:36.103Z,11.63
2023-02-16T00:17:04.953Z,10.90
2023-02-16T00:19:37.055Z,11.73
2023-02-16T00:22:08.357Z,13.70
2023-02-16T00:24:36.750Z,11.87
2023-02-16T00:27:13.205Z,11.80
2023-02-16T00:29:41.107Z,12.73
2023-02-16T00:32:13.830Z,12.77
2023-02-16T00:34:43.177Z,11.83
2023-02-16T00:37:14.402Z,12.93
2023-02-16T00:39:43.920Z,11.97
2023-02-16T00:42:18.479Z,12.03
2023-02-16T00:44:48.874Z,11.53
2023-02-16T00:47:21.173Z,13.37
2023-02-16T00:49:50.039Z,13.03
2023-02-16T00:52:31.259Z,12.20
2023-02-16T00:55:00.187Z,11.17
2023-02-16T00:57:32.023Z,11.87
2023-02-16T01:00:04.020Z,10.77
2023-02-16T01:02:32.226Z,11.90
2023-02-16T01:05:00.214Z,13.03
2023-02-16T01:07:47.104Z,12.07
2023-02-16T01:10:32.890Z,11.57
2023-02-16T01:13:01.951Z,12.63
2023-02-16T01:15:30.131Z,11.83
2023-02-16T01:18:02.058Z,14.30
2023-02-16T01:20:30.299Z,10.90
2023-02-16T01:22:59.683Z,13.10
2023-02-16T01:25:27.782Z,13.67
2023-02-16T01:27:56.007Z,13.90
2023-02-16T01:30:25.821Z,14.67
2023-02-16T01:32:54.211Z,12.80
2023-02-16T01:35:23.627Z,11.60
2023-02-16T01:37:52.599Z,13.87
2023-02-16T01:40:32.644Z,14.13
2023-02-16T01:43:07.308Z,11.70
2023-02-16T01:45:38.726Z,11.73
2023-02-16T01:48:12.566Z,12.63
2023-02-16T01:50:45.774Z,13.53
2023-02-16T01:53:20.697Z,11.77
2023-02-16T01:55:55.694Z,15.83
2023-02-16T01:58:32.578Z,11.87
2023-02-16T02:01:39.098Z,13.47
2023-02-16T02:04:42.037Z,14.10
2023-02-16T02:07:16.295Z,14.03
2023-02-16T02:09:50.778Z,13.10
2023-02-16T02:12:30.393Z,10.00
2023-02-16T02:14:58.441Z,10.50
2023-02-16T02:17:27.580Z,12.13
2023-02-16T02:20:06.194Z,10.30
2023-02-16T02:23:33.674Z,12.97
2023-02-16T02:26:44.573Z,10.27
2023-02-16T02:29:48.229Z,9.53
2023-02-16T02:32:25.672Z,11.30
2023-02-16T02:35:03.241Z,13.67
2023-02-16T02:37:44.613Z,12.03
2023-02-16T02:40:17.974Z,10.57
2023-02-16T02:42:55.780Z,9.97
2023-02-16T02:45:29.561Z,10.57
2023-02-16T02:47:58.700Z,10.87
2023-02-16T02:50:39.015Z,12.10
2023-02-16T02:53:13.101Z,11.53
2023-02-16T02:56:02.646Z,10.03
2023-02-16T02:58:51.187Z,12.63
2023-02-16T03:01:21.748Z,11.47
2023-02-16T03:03:53.106Z,11.17
2023-02-16T03:06:25.923Z,12.00
2023-02-16T03:08:58.654Z,10.87
2023-02-16T03:11:48.244Z,11.13
2023-02-16T03:14:19.563Z,10.33
2023-02-16T03:17:10.673Z,12.00
2023-02-16T03:19:58.528Z,10.83
2023-02-16T03:22:44.594Z,11.20
2023-02-16T03:25:30.075Z,11.50
2023-02-16T03:28:18.698Z,11.93
2023-02-16T03:30:48.731Z,11.40
2023-02-16T03:33:18.527Z,10.63
2023-02-16T03:35:47.095Z,13.30
2023-02-16T03:38:15.498Z,11.07
2023-02-16T03:40:45.824Z,11.03
2023-02-16T03:43:13.930Z,10.33
2023-02-16T03:45:43.923Z,11.53
2023-02-16T03:48:12.815Z,12.50
2023-02-16T03:50:42.304Z,12.03
2023-02-16T03:53:10.414Z,10.53
2023-02-16T03:55:40.706Z,12.03
2023-02-16T03:58:10.104Z,12.97
2023-02-16T04:00:38.364Z,12.20
2023-02-16T04:03:08.951Z,11.23
2023-02-16T04:05:37.171Z,12.60
2023-02-16T04:08:08.200Z,11.67
2023-02-16T04:10:36.459Z,11.97
2023-02-16T04:13:03.423Z,11.77
2023-02-16T04:15:32.231Z,11.63
2023-02-16T04:18:00.922Z,11.57
2023-02-16T04:20:31.623Z,10.87
2023-02-16T04:22:59.602Z,12.37
2023-02-16T04:25:29.576Z,11.33
2023-02-16T04:27:57.794Z,11.20
2023-02-16T04:30:27.482Z,10.07
2023-02-16T04:32:56.413Z,12.23
2023-02-16T04:35:24.294Z,12.27
2023-02-16T04:37:52.510Z,12.13
2023-02-16T04:40:20.887Z,12.73
2023-02-16T04:42:50.831Z,13.90
2023-02-16T04:45:19.054Z,11.93
2023-02-16T04:47:47.055Z,11.23
2023-02-16T04:50:14.971Z,11.87
2023-02-16T04:52:43.108Z,9.60
2023-02-16T04:55:11.541Z,11.37
2023-02-16T04:57:40.091Z,12.27
2023-02-16T05:00:12.953Z,11.47
2023-02-16T05:02:41.265Z,11.17
2023-02-16T05:05:09.926Z,11.43
2023-02-16T05:07:37.984Z,12.50
2023-02-16T05:10:07.332Z,13.57
2023-02-16T05:12:52.669Z,11.70
2023-02-16T05:15:22.490Z,11.57
2023-02-16T05:17:51.325Z,10.37
2023-02-16T05:20:19.654Z,10.50
2023-02-16T05:22:47.687Z,14.10
2023-02-16T05:25:15.529Z,12.60
2023-02-16T05:27:43.843Z,13.03
2023-02-16T05:30:13.241Z,14.60
2023-02-16T05:32:42.564Z,14.37
2023-02-16T05:35:10.708Z,14.63
2023-02-16T05:37:40.553Z,13.03
2023-02-16T05:40:11.391Z,12.77
2023-02-16T05:42:39.282Z,14.13
2023-02-16T05:45:07.864Z,12.83
2023-02-16T05:47:35.695Z,14.00
2023-02-16T05:50:05.533Z,13.33
2023-02-16T05:52:33.448Z,19.73
2023-02-16T05:55:01.866Z,18.17
2023-02-16T05:57:30.307Z,21.67
2023-02-16T05:59:58.153Z,16.80
2023-02-16T06:02:26.217Z,18.13
2023-02-16T06:04:54.459Z,16.33
2023-02-16T06:07:23.782Z,14.60
2023-02-16T06:09:52.013Z,15.77
2023-02-16T06:12:20.138Z,15.03
2023-02-16T06:14:47.981Z,17.03
2023-02-16T06:17:16.148Z,20.37
2023-02-16T06:19:44.194Z,18.27
2023-02-16T06:22:12.153Z,18.83
2023-02-16T06:24:41.709Z,16.57
2023-02-16T06:27:09.623Z,16.17
2023-02-16T06:29:37.534Z,15.47
2023-02-16T06:32:06.251Z,13.23
2023-02-16T06:34:34.425Z,13.93
2023-02-16T06:37:02.445Z,14.67
2023-02-16T06:39:30.480Z,14.10
2023-02-16T06:41:59.752Z,16.83
2023-02-16T06:44:27.738Z,16.10
2023-02-16T06:46:56.294Z,16.37
2023-02-16T06:49:27.723Z,14.37
2023-02-16T06:51:56.217Z,15.37
2023-02-16T06:54:24.273Z,14.87
2023-02-16T06:56:52.547Z,15.70
2023-02-16T06:59:21.953Z,14.47
2023-02-16T07:01:49.824Z,15.27
2023-02-16T07:04:17.836Z,14.63
2023-02-16T07:06:45.719Z,14.33
2023-02-16T07:09:13.661Z,16.27
2023-02-16T07:11:41.853Z,14.60
2023-02-16T07:14:10.045Z,17.83
2023-02-16T07:16:39.488Z,18.93
2023-02-16T07:19:07.814Z,21.63
2023-02-16T07:21:36.077Z,17.80
2023-02-16T07:24:04.455Z,14.63
2023-02-16T07:26:32.621Z,15.80
2023-02-16T07:29:00.792Z,13.23
2023-02-16T07:31:28.809Z,16.00
2023-02-16T07:33:58.674Z,16.23
2023-02-16T07:36:26.767Z,16.00
2023-02-16T07:38:55.018Z,16.43
2023-02-16T07:41:23.303Z,17.53
2023-02-16T07:43:51.194Z,15.53
2023-02-16T07:46:19.619Z,15.53
2023-02-16T07:48:49.412Z,17.37
2023-02-16T07:51:24.073Z,15.30
2023-02-16T07:53:52.932Z,16.33
2023-02-16T07:56:22.032Z,14.50
2023-02-16T07:58:52.039Z,16.67
2023-02-16T08:01:20.014Z,16.17
2023-02-16T08:03:48.031Z,17.27
2023-02-16T08:06:16.591Z,15.83
2023-02-16T08:08:46.604Z,15.57
2023-02-16T08:11:16.830Z,17.77
2023-02-16T08:13:45.762Z,15.90
2023-02-16T08:16:16.001Z,14.63
2023-02-16T08:18:43.942Z,16.63
2023-02-16T08:21:14.791Z,14.13
2023-02-16T08:23:47.640Z,13.40
2023-02-16T08:26:18.242Z,14.83
2023-02-16T08:28:46.996Z,13.17
2023-02-16T08:31:15.536Z,16.57
2023-02-16T08:33:43.940Z,16.03
2023-02-16T08:36:18.138Z,14.47
2023-02-16T08:38:50.307Z,13.57
2023-02-16T08:41:19.534Z,14.23
2023-02-16T08:43:47.439Z,16.13
2023-02-16T08:46:16.158Z,15.20
2023-02-16T08:48:45.407Z,14.30
2023-02-16T08:51:16.069Z,14.80
2023-02-16T08:53:44.596Z,18.70
2023-02-16T08:56:14.932Z,19.97
2023-02-16T08:58:46.159Z,22.47
2023-02-16T09:01:16.212Z,18.03
2023-02-16T09:03:46.228Z,52.40
2023-02-16T09:06:16.311Z,33.10
2023-02-16T09:08:46.642Z,25.77
2023-02-16T09:11:17.544Z,22.53
2023-02-16T09:13:46.902Z,19.97
2023-02-16T09:16:16.808Z,21.07
2023-02-16T09:18:45.847Z,18.93
2023-02-16T09:21:15.940Z,15.90
2023-02-16T09:23:48.051Z,18.37
2023-02-16T09:26:18.816Z,16.03
2023-02-16T09:28:48.903Z,18.63
2023-02-16T09:31:20.176Z,22.17
2023-02-16T09:33:48.378Z,22.43
2023-02-16T09:36:16.398Z,25.70
2023-02-16T09:38:44.307Z,26.87
2023-02-16T09:41:31.990Z,24.23
2023-02-16T09:44:02.874Z,22.70
2023-02-16T09:46:33.498Z,20.80
2023-02-16T09:49:04.169Z,20.23
2023-02-16T09:51:37.487Z,18.90
2023-02-16T09:54:16.919Z,18.57
2023-02-16T09:56:53.804Z,19.07
2023-02-16T09:59:35.165Z,17.60
2023-02-16T10:02:23.535Z,16.80
2023-02-16T10:05:04.381Z,16.80
2023-02-16T10:07:42.461Z,17.23
2023-02-16T10:10:17.030Z,16.93
2023-02-16T10:12:51.784Z,20.73
2023-02-16T10:15:24.850Z,17.63
2023-02-16T10:17:56.857Z,18.87
2023-02-16T10:20:29.197Z,18.60
2023-02-16T10:23:03.141Z,17.73
2023-02-16T10:25:40.911Z,17.50
2023-02-16T10:28:17.638Z,16.60
2023-02-16T10:30:51.737Z,17.77
2023-02-16T10:33:32.201Z,18.53
2023-02-16T10:36:02.570Z,19.73
2023-02-16T10:38:38.225Z,23.90
2023-02-16T10:41:17.961Z,27.03
2023-02-16T10:43:52.828Z,19.73
2023-02-16T10:46:26.346Z,19.20
2023-02-16T10:48:55.518Z,19.77
2023-02-16T10:51:27.975Z,21.50
2023-02-16T10:54:02.521Z,17.40
2023-02-16T10:56:54.352Z,19.07
2023-02-16T10:59:25.622Z,19.17
2023-02-16T11:01:54.985Z,19.93
2023-02-16T11:04:35.607Z,20.70
2023-02-16T11:07:06.398Z,19.43
2023-02-16T11:09:34.781Z,19.40
2023-02-16T11:12:03.585Z,19.83
2023-02-16T11:14:32.863Z,20.83
2023-02-16T11:17:12.548Z,20.73
2023-02-16T11:19:48.254Z,21.63
2023-02-16T11:22:28.108Z,18.43
2023-02-16T11:24:56.540Z,17.50
2023-02-16T11:27:26.027Z,18.90
2023-02-16T11:30:22.315Z,20.30
2023-02-16T11:32:51.699Z,16.47
2023-02-16T11:35:20.176Z,18.80
2023-02-16T11:37:48.372Z,16.60
2023-02-16T11:40:23.165Z,16.00
2023-02-16T11:42:53.088Z,14.33
2023-02-16T11:45:31.361Z,15.80
2023-02-16T11:48:02.518Z,14.17
2023-02-16T11:50:32.297Z,13.80
2023-02-16T11:53:16.711Z,14.10
2023-02-16T11:55:48.105Z,14.10
2023-02-16T11:58:21.621Z,13.40
2023-02-16T12:01:06.267Z,12.40
2023-02-16T12:04:01.222Z,14.07
2023-02-16T12:06:43.200Z,13.77
2023-02-16T12:09:21.815Z,11.97
2023-02-16T12:12:00.679Z,12.57
2023-02-16T12:14:37.301Z,13.50
2023-02-16T12:17:20.063Z,12.80
2023-02-16T12:19:51.540Z,13.07
2023-02-16T12:22:34.218Z,14.80
2023-02-16T12:25:25.671Z,12.90
2023-02-16T12:27:59.309Z,13.53
2023-02-16T12:30:41.846Z,12.03
2023-02-16T12:33:26.771Z,14.10
2023-02-16T12:36:12.832Z,12.00
2023-02-16T12:38:51.314Z,12.83
2023-02-16T12:41:28.777Z,13.93
2023-02-16T12:44:03.397Z,13.27
2023-02-16T12:46:36.897Z,14.83
2023-02-16T12:49:13.530Z,16.60
2023-02-16T12:51:48.206Z,14.00
2023-02-16T12:54:23.570Z,12.67
2023-02-16T12:56:58.797Z,14.27
2023-02-16T12:59:35.289Z,14.37
2023-02-16T13:02:10.910Z,13.40
2023-02-16T13:04:45.271Z,12.93
2023-02-16T13:07:18.180Z,13.37
2023-02-16T13:09:54.569Z,14.60
2023-02-16T13:12:31.519Z,12.33
2023-02-16T13:15:07.962Z,11.97
2023-02-16T13:17:40.165Z,13.70
2023-02-16T13:20:16.765Z,14.90
2023-02-16T13:23:22.032Z,13.07
2023-02-16T13:26:14.473Z,15.33
2023-02-16T13:28:55.903Z,15.40
2023-02-16T13:31:35.969Z,12.70
2023-02-16T13:34:29.220Z,13.57
2023-02-16T13:37:14.487Z,13.03
2023-02-16T13:40:01.911Z,12.97
2023-02-16T13:42:49.870Z,13.00
2023-02-16T13:45:21.883Z,13.67
2023-02-16T13:47:50.758Z,13.67
2023-02-16T13:50:29.089Z,11.83
2023-02-16T13:53:09.643Z,12.00
2023-02-16T13:55:39.905Z,11.50
2023-02-16T13:58:27.278Z,13.73
2023-02-16T14:00:56.014Z,15.00
2023-02-16T14:03:38.607Z,13.60
2023-02-16T14:06:33.587Z,12.93
2023-02-16T14:09:45.529Z,11.87
2023-02-16T14:12:23.421Z,12.87
2023-02-16T14:15:00.857Z,11.07
2023-02-16T14:17:31.764Z,10.83
2023-02-16T14:20:02.194Z,11.97
2023-02-16T14:22:36.224Z,10.97
2023-02-16T14:25:08.800Z,10.87
2023-02-16T14:27:46.620Z,10.80
2023-02-16T14:30:21.184Z,11.77
2023-02-16T14:32:55.056Z,11.70
2023-02-16T14:35:25.863Z,11.13
2023-02-16T14:37:59.588Z,12.47
2023-02-16T14:40:55.270Z,12.00
2023-02-16T14:43:29.315Z,14.27
2023-02-16T14:46:28.294Z,13.07
2023-02-16T14:49:26.070Z,12.40
2023-02-16T14:52:35.836Z,11.93
2023-02-16T14:55:46.651Z,12.03
2023-02-16T14:58:28.842Z,10.80
2023-02-16T15:01:04.751Z,10.40
2023-02-16T15:03:45.289Z,12.03
2023-02-16T15:06:24.255Z,12.63
2023-02-16T15:08:59.794Z,12.80
2023-02-16T15:11:32.782Z,11.73
2023-02-16T15:14:11.563Z,10.63
2023-02-16T15:16:41.745Z,10.70
2023-02-16T15:19:16.423Z,15.57
2023-02-16T15:21:44.662Z,11.30
2023-02-16T15:24:24.167Z,11.97
2023-02-16T15:27:01.875Z,11.77
2023-02-16T15:29:31.226Z,12.03
2023-02-16T15:32:01.006Z,13.50
2023-02-16T15:34:33.160Z,13.27
2023-02-16T15:37:23.450Z,11.10
2023-02-16T15:40:12.155Z,12.07
2023-02-16T15:42:43.303Z,12.07
2023-02-16T15:45:34.144Z,14.70
2023-02-16T15:48:22.898Z,12.27
2023-02-16T15:50:53.502Z,11.63
2023-02-16T15:53:34.777Z,9.93
2023-02-16T15:56:07.024Z,12.13
2023-02-16T15:58:35.763Z,11.83
2023-02-16T16:01:05.616Z,12.73
2023-02-16T16:03:34.199Z,12.93
2023-02-16T16:06:07.291Z,13.57
2023-02-16T16:08:36.554Z,12.27
2023-02-16T16:11:05.362Z,11.20
2023-02-16T16:13:33.768Z,14.20
2023-02-16T16:16:07.051Z,14.10
2023-02-16T16:18:46.275Z,12.17
2023-02-16T16:21:24.194Z,12.23
2023-02-16T16:23:58.027Z,15.23
2023-02-16T16:26:26.954Z,16.93
2023-02-16T16:28:55.723Z,14.50
2023-02-16T16:31:43.623Z,11.20
2023-02-16T16:34:30.875Z,12.87
2023-02-16T16:36:59.780Z,11.17
2023-02-16T16:39:29.359Z,14.57
2023-02-16T16:42:17.720Z,13.40
2023-02-16T16:44:56.419Z,13.83
2023-02-16T16:47:29.132Z,16.33
2023-02-16T16:49:59.476Z,12.40
2023-02-16T16:52:38.986Z,11.80
2023-02-16T16:55:31.663Z,14.83
2023-02-16T16:58:01.385Z,12.50
2023-02-16T17:00:34.096Z,12.10
2023-02-16T17:03:04.821Z,12.77
2023-02-16T17:05:33.193Z,12.33
2023-02-16T17:08:01.258Z,13.23
2023-02-16T17:10:29.624Z,12.40
2023-02-16T17:12:59.642Z,14.60
2023-02-16T17:15:41.740Z,13.07
2023-02-16T17:18:15.602Z,12.17
2023-02-16T17:20:43.972Z,13.57
2023-02-16T17:23:12.823Z,13.03
2023-02-16T17:25:41.554Z,13.40
2023-02-16T17:28:10.820Z,12.77
2023-02-16T17:30:39.282Z,13.80
2023-02-16T17:33:08.170Z,12.67
2023-02-16T17:35:39.893Z,15.50
2023-02-16T17:38:08.949Z,12.57
2023-02-16T17:40:37.410Z,12.37
2023-02-16T17:43:11.915Z,12.50
2023-02-16T17:45:40.093Z,16.87
2023-02-16T17:48:08.386Z,13.43
2023-02-16T17:50:38.364Z,12.80
2023-02-16T17:53:12.587Z,13.40
2023-02-16T17:55:40.872Z,14.23
2023-02-16T17:58:08.713Z,14.43
2023-02-16T18:00:38.216Z,13.07
2023-02-16T18:03:06.648Z,13.33
2023-02-16T18:05:34.971Z,14.83
2023-02-16T18:08:05.011Z,12.57
2023-02-16T18:10:36.051Z,12.33
2023-02-16T18:13:04.469Z,13.53
2023-02-16T18:15:33.141Z,13.73
2023-02-16T18:18:01.183Z,12.73
2023-02-16T18:20:29.205Z,12.87
2023-02-16T18:22:57.290Z,11.47
2023-02-16T18:25:26.669Z,11.93
2023-02-16T18:27:54.948Z,14.30
2023-02-16T18:30:23.568Z,15.63
2023-02-16T18:32:51.808Z,13.53
2023-02-16T18:35:20.580Z,16.43
2023-02-16T18:37:49.098Z,13.23
2023-02-16T18:40:20.663Z,11.87
2023-02-16T18:42:50.151Z,12.20
2023-02-16T18:45:18.329Z,13.17
2023-02-16T18:47:46.281Z,16.13
2023-02-16T18:50:14.252Z,14.00
2023-02-16T18:52:43.282Z,12.30
2023-02-16T18:55:12.097Z,11.90
2023-02-16T18:57:40.460Z,12.67
2023-02-16T19:00:12.354Z,12.13
2023-02-16T19:02:40.922Z,11.30
2023-02-16T19:05:09.764Z,13.43
2023-02-16T19:07:37.736Z,12.97
2023-02-16T19:10:10.463Z,14.37
2023-02-16T19:12:38.631Z,13.23
2023-02-16T19:15:07.361Z,11.60
2023-02-16T19:17:38.556Z,15.03
2023-02-16T19:20:08.022Z,13.00
2023-02-16T19:22:37.325Z,12.00
2023-02-16T19:25:05.780Z,11.70
2023-02-16T19:27:34.268Z,10.83
2023-02-16T19:30:02.288Z,12.13
2023-02-16T19:32:30.537Z,10.80
2023-02-16T19:34:59.920Z,12.57
2023-02-16T19:37:27.892Z,12.60
2023-02-16T19:39:55.893Z,12.53
2023-02-16T19:42:23.881Z,11.00
2023-02-16T19:44:52.218Z,11.97
2023-02-16T19:47:20.071Z,14.23
2023-02-16T19:49:48.158Z,15.27
2023-02-16T19:52:17.994Z,12.90
2023-02-16T19:54:46.196Z,11.03
2023-02-16T19:57:14.020Z,11.37
2023-02-16T19:59:42.121Z,11.67
2023-02-16T20:02:11.752Z,13.27
2023-02-16T20:04:39.669Z,11.93
2023-02-16T20:07:08.502Z,11.33
2023-02-16T20:09:38.379Z,13.67
2023-02-16T20:12:06.898Z,11.90
2023-02-16T20:14:35.201Z,14.07
2023-02-16T20:17:03.099Z,11.93
2023-02-16T20:19:31.178Z,11.63
2023-02-16T20:21:59.095Z,10.47
2023-02-16T20:24:26.981Z,12.23
2023-02-16T20:26:56.155Z,12.17
2023-02-16T20:29:24.305Z,12.70
2023-02-16T20:31:54.063Z,12.30
2023-02-16T20:34:23.275Z,10.97
2023-02-16T20:36:51.341Z,11.87
2023-02-16T20:39:20.147Z,9.70
2023-02-16T20:41:48.105Z,10.10
2023-02-16T20:44:17.643Z,11.43
2023-02-16T20:46:45.646Z,11.63
2023-02-16T20:49:14.564Z,9.67
2023-02-16T20:51:42.437Z,11.47
2023-02-16T20:54:12.303Z,10.17
2023-02-16T20:56:40.275Z,12.83
2023-02-16T20:59:08.444Z,10.60
2023-02-16T21:01:39.494Z,10.83
2023-02-16T21:04:08.615Z,10.27
2023-02-16T21:06:37.994Z,11.63
2023-02-16T21:09:07.374Z,11.80
2023-02-16T21:11:37.217Z,11.13
2023-02-16T21:14:05.684Z,10.33
2023-02-16T21:16:33.802Z,11.23
2023-02-16T21:19:05.601Z,12.07
2023-02-16T21:21:40.912Z,11.83
2023-02-16T21:24:09.351Z,10.97
2023-02-16T21:26:37.558Z,9.97
2023-02-16T21:29:05.636Z,11.17
2023-02-16T21:31:33.807Z,13.37
2023-02-16T21:34:03.260Z,11.40
2023-02-16T21:36:31.314Z,10.97
2023-02-16T21:38:59.131Z,10.13
2023-02-16T21:41:29.100Z,11.50
2023-02-16T21:44:00.800Z,11.37
2023-02-16T21:46:30.992Z,13.23
2023-02-16T21:48:58.277Z,11.17
2023-02-16T21:51:31.927Z,10.20
2023-02-16T21:54:00.265Z,11.83
2023-02-16T21:56:33.335Z,13.47
2023-02-16T21:59:01.612Z,10.53
2023-02-16T22:01:32.729Z,10.87
2023-02-16T22:04:01.937Z,10.53
2023-02-16T22:06:33.536Z,8.37
2023-02-16T22:09:02.468Z,10.70
2023-02-16T22:11:30.436Z,10.27
2023-02-16T22:14:00.233Z,10.23
2023-02-16T22:16:29.505Z,10.33
2023-02-16T22:18:58.345Z,12.63
2023-02-16T22:21:26.621Z,9.77
2023-02-16T22:23:56.557Z,11.10
2023-02-16T22:26:26.534Z,12.67
2023-02-16T22:28:55.029Z,10.53
2023-02-16T22:31:25.246Z,13.53
2023-02-16T22:33:56.543Z,12.73
2023-02-16T22:36:25.002Z,13.70
2023-02-16T22:38:56.194Z,12.83
2023-02-16T22:41:25.112Z,10.50
2023-02-16T22:43:54.395Z,11.57
2023-02-16T22:46:23.303Z,12.00
2023-02-16T22:48:51.854Z,12.10
2023-02-16T22:51:21.836Z,13.87
2023-02-16T22:53:49.760Z,13.60
2023-02-16T22:56:20.236Z,11.40
2023-02-16T22:58:48.406Z,13.53
2023-02-16T23:01:18.980Z,11.53
2023-02-16T23:03:47.813Z,12.60
2023-02-16T23:06:17.695Z,12.73
2023-02-16T23:08:46.446Z,12.37
2023-02-16T23:11:14.913Z,11.97
2023-02-16T23:13:44.128Z,11.60
2023-02-16T23:16:14.067Z,12.13
2023-02-16T23:18:42.670Z,12.07
2023-02-16T23:21:14.820Z,11.73
2023-02-16T23:23:43.044Z,9.70
2023-02-16T23:26:11.382Z,11.83
2023-02-16T23:28:41.438Z,10.17
2023-02-16T23:31:12.626Z,10.40
2023-02-16T23:33:40.935Z,11.67
2023-02-16T23:36:09.595Z,10.20
2023-02-16T23:38:37.853Z,10.13
2023-02-16T23:41:07.863Z,12.40
2023-02-16T23:43:36.696Z,10.50
2023-02-16T23:46:05.534Z,10.00
2023-02-16T23:48:35.287Z,10.83
2023-02-16T23:51:03.098Z,11.97
2023-02-16T23:53:31.483Z,14.67
2023-02-16T23:56:00.306Z,10.00
2023-02-16T23:58:28.727Z,10.00
